Time,TemperatureF,DewpointF,PressureIn,WindDirection,WindDirectionDegrees,WindSpeedMPH,WindSpeedGustMPH,Humidity,HourlyPrecipIn,Conditions,Clouds,dailyrainin,SoftwareType,DateUTC
2013-12-10 00:12:00,12.0,6.0,30.29,West,280,0.0,0.0,76,0.00,,,0.00,,2013-12-10 05:12:00,
2013-12-10 00:22:00,12.0,5.0,30.29,WNW,293,0.0,0.0,74,0.00,,,0.00,,2013-12-10 05:22:00,
2013-12-10 00:42:00,12.0,6.0,30.29,WNW,295,0.0,0.0,76,0.00,,,0.00,,2013-12-10 05:42:00,
2013-12-10 00:53:00,11.0,5.0,30.29,WNW,300,0.0,0.0,77,0.00,,,0.00,,2013-12-10 05:53:00,
2013-12-10 01:02:00,11.0,5.0,30.29,WNW,300,0.0,0.0,77,0.00,,,0.00,,2013-12-10 06:02:00,
2013-12-10 01:12:00,11.0,5.0,30.29,WNW,300,0.0,0.0,77,0.00,,,0.00,,2013-12-10 06:12:00,
2013-12-10 01:22:00,9.0,4.0,30.29,WNW,300,0.0,0.0,79,0.00,,,0.00,,2013-12-10 06:22:00,
2013-12-10 01:42:00,7.0,2.0,30.30,WNW,296,0.0,0.0,79,0.00,,,0.00,,2013-12-10 06:42:00,
2013-12-10 01:53:00,6.0,1.0,30.30,NW,306,0.0,0.0,81,0.00,,,0.00,,2013-12-10 06:53:00,
2013-12-10 02:22:00,6.0,2.0,30.29,NW,310,0.0,0.0,83,0.00,,,0.00,,2013-12-10 07:22:00,
2013-12-10 02:42:00,6.0,2.0,30.29,WNW,301,0.0,0.0,82,0.00,,,0.00,,2013-12-10 07:42:00,
2013-12-10 02:52:00,6.0,2.0,30.29,WNW,302,0.0,0.0,83,0.00,,,0.00,,2013-12-10 07:52:00,
2013-12-10 03:12:00,6.0,2.0,30.28,West,281,0.0,0.0,83,0.00,,,0.00,,2013-12-10 08:12:00,
2013-12-10 03:22:00,5.0,1.0,30.27,West,281,0.0,0.0,84,0.00,,,0.00,,2013-12-10 08:22:00,
2013-12-10 03:42:00,5.0,2.0,30.27,West,281,0.0,0.0,85,0.00,,,0.00,,2013-12-10 08:42:00,
2013-12-10 03:52:00,5.0,2.0,30.27,West,281,0.0,0.0,85,0.00,,,0.00,,2013-12-10 08:52:00,
2013-12-10 04:11:00,4.0,0.0,30.28,WNW,288,0.0,0.0,84,0.00,,,0.00,,2013-12-10 09:11:00,
2013-12-10 04:22:00,3.0,-1.0,30.28,WNW,288,0.0,0.0,84,0.00,,,0.00,,2013-12-10 09:22:00,
2013-12-10 04:44:00,2.0,-1.0,30.28,WNW,288,0.0,0.0,85,0.00,,,0.00,,2013-12-10 09:44:00,
2013-12-10 04:54:00,2.0,-1.0,30.28,WNW,288,0.0,0.0,85,0.00,,,0.00,,2013-12-10 09:54:00,
2013-12-10 05:12:00,1.0,-3.0,30.28,WNW,288,0.0,0.0,84,0.00,,,0.00,,2013-12-10 10:12:00,
2013-12-10 05:22:00,1.0,-2.0,30.28,WNW,288,0.0,0.0,85,0.00,,,0.00,,2013-12-10 10:22:00,
2013-12-10 05:42:00,1.0,-2.0,30.27,WNW,288,0.0,0.0,86,0.00,,,0.00,,2013-12-10 10:42:00,
2013-12-10 05:53:00,1.0,-2.0,30.26,WNW,288,0.0,0.0,85,0.00,,,0.00,,2013-12-10 10:53:00,
2013-12-10 06:12:00,1.0,-2.0,30.25,WNW,288,0.0,0.0,86,0.00,,,0.00,,2013-12-10 11:12:00,
2013-12-10 06:22:00,1.0,-2.0,30.24,WNW,288,0.0,0.0,86,0.00,,,0.00,,2013-12-10 11:22:00,
2013-12-10 06:43:00,1.0,-2.0,30.24,WNW,288,0.0,1.0,85,0.00,,,0.00,,2013-12-10 11:43:00,
2013-12-10 06:53:00,1.0,-3.0,30.23,West,263,0.0,2.0,82,0.00,,,0.00,,2013-12-10 11:53:00,
2013-12-10 07:12:00,2.0,-2.0,30.23,South,180,0.0,3.0,83,0.00,,,0.00,,2013-12-10 12:12:00,
2013-12-10 07:22:00,1.0,-3.0,30.22,South,173,1.0,4.0,83,0.00,,,0.00,,2013-12-10 12:22:00,
2013-12-10 07:42:00,2.0,-2.0,30.22,South,186,1.0,4.0,83,0.00,,,0.00,,2013-12-10 12:42:00,
2013-12-10 07:52:00,2.0,-2.0,30.22,South,188,1.0,5.0,82,0.00,,,0.00,,2013-12-10 12:52:00,
2013-12-10 08:12:00,2.0,-2.0,30.21,South,188,1.0,5.0,83,0.00,,,0.00,,2013-12-10 13:12:00,
2013-12-10 08:22:00,4.0,0.0,30.20,SSW,198,2.0,6.0,83,0.00,,,0.00,,2013-12-10 13:22:00,
2013-12-10 08:42:00,5.0,0.0,30.20,SSW,200,4.0,7.0,81,0.00,,,0.00,,2013-12-10 13:42:00,
2013-12-10 08:52:00,7.0,1.0,30.20,SSW,195,4.0,8.0,77,0.00,,,0.00,,2013-12-10 13:52:00,
2013-12-10 09:11:00,8.0,3.0,30.20,SSW,211,5.0,9.0,78,0.00,,,0.00,,2013-12-10 14:11:00,
2013-12-10 09:22:00,9.0,4.0,30.19,SSW,200,6.0,11.0,79,0.00,,,0.00,,2013-12-10 14:22:00,
2013-12-10 09:42:00,10.0,5.0,30.20,SSW,205,5.0,11.0,79,0.00,,,0.00,,2013-12-10 14:42:00,
2013-12-10 09:52:00,12.0,7.0,30.18,SSW,206,7.0,13.0,79,0.00,,,0.00,,2013-12-10 14:52:00,
2013-12-10 10:02:00,12.0,7.0,30.18,SSW,206,7.0,13.0,79,0.00,,,0.00,,2013-12-10 15:02:00,
2013-12-10 10:11:00,12.0,7.0,30.18,SSW,206,7.0,13.0,79,0.00,,,0.00,,2013-12-10 15:11:00,
2013-12-10 10:22:00,14.0,8.0,30.17,SW,214,7.0,15.0,77,0.00,,,0.00,,2013-12-10 15:22:00,
2013-12-10 10:44:00,16.0,10.0,30.18,SSW,213,7.0,14.0,77,0.00,,,0.00,,2013-12-10 15:44:00,
2013-12-10 10:53:00,17.0,10.0,30.18,SW,229,9.0,16.0,73,0.00,,,0.00,,2013-12-10 15:53:00,
2013-12-10 11:12:00,18.0,10.0,30.18,WSW,239,7.0,19.0,70,0.00,,,0.00,,2013-12-10 16:12:00,
2013-12-10 11:23:00,18.0,10.0,30.18,WSW,239,7.0,19.0,70,0.00,,,0.00,,2013-12-10 16:23:00,
2013-12-10 11:33:00,18.0,10.0,30.18,WSW,239,7.0,19.0,70,0.00,,,0.00,,2013-12-10 16:33:00,
2013-12-10 11:43:00,18.0,10.0,30.18,WSW,239,7.0,19.0,70,0.00,,,0.00,,2013-12-10 16:43:00,
2013-12-10 12:22:00,21.0,13.0,30.19,West,267,12.0,22.0,72,0.00,,,0.00,,2013-12-10 17:22:00,
2013-12-10 12:43:00,22.0,13.0,30.19,West,271,14.0,22.0,69,0.00,,,0.00,,2013-12-10 17:43:00,
2013-12-10 12:52:00,22.0,13.0,30.19,WSW,253,13.0,26.0,69,0.00,,,0.00,,2013-12-10 17:52:00,
2013-12-10 13:11:00,22.0,13.0,30.20,WNW,284,14.0,24.0,69,0.00,,,0.00,,2013-12-10 18:11:00,
2013-12-10 13:22:00,22.0,13.0,30.20,WNW,284,14.0,24.0,69,0.00,,,0.00,,2013-12-10 18:22:00,
2013-12-10 13:42:00,23.0,15.0,30.19,West,261,14.0,24.0,70,0.00,,,0.00,,2013-12-10 18:42:00,
2013-12-10 13:52:00,24.0,15.0,30.19,West,260,14.0,24.0,69,0.00,,,0.00,,2013-12-10 18:52:00,
2013-12-10 14:11:00,24.0,15.0,30.19,West,276,15.0,24.0,69,0.00,,,0.00,,2013-12-10 19:11:00,
2013-12-10 14:22:00,25.0,16.0,30.19,West,265,14.0,24.0,68,0.00,,,0.00,,2013-12-10 19:22:00,
2013-12-10 14:42:00,25.0,16.0,30.19,West,274,14.0,21.0,68,0.00,,,0.00,,2013-12-10 19:42:00,
2013-12-10 14:52:00,25.0,16.0,30.19,West,274,14.0,21.0,68,0.00,,,0.00,,2013-12-10 19:52:00,
2013-12-10 15:11:00,25.0,16.0,30.20,West,280,12.0,24.0,67,0.00,,,0.00,,2013-12-10 20:11:00,
2013-12-10 15:22:00,25.0,16.0,30.21,WNW,284,14.0,25.0,68,0.00,,,0.00,,2013-12-10 20:22:00,
2013-12-10 15:42:00,25.0,16.0,30.21,West,268,16.0,26.0,68,0.00,,,0.00,,2013-12-10 20:42:00,
2013-12-10 15:52:00,26.0,16.0,30.21,WSW,257,16.0,25.0,64,0.00,,,0.00,,2013-12-10 20:52:00,
2013-12-10 16:12:00,26.0,16.0,30.22,West,261,13.0,20.0,64,0.00,,,0.00,,2013-12-10 21:12:00,
2013-12-10 16:22:00,25.0,15.0,30.22,WSW,252,15.0,24.0,65,0.00,,,0.00,,2013-12-10 21:22:00,
2013-12-10 16:43:00,25.0,15.0,30.23,WSW,258,15.0,23.0,65,0.00,,,0.00,,2013-12-10 21:43:00,
2013-12-10 16:54:00,24.0,14.0,30.24,West,276,12.0,21.0,66,0.00,,,0.00,,2013-12-10 21:54:00,
2013-12-10 17:13:00,24.0,15.0,30.24,West,275,11.0,19.0,67,0.00,,,0.00,,2013-12-10 22:13:00,
2013-12-10 17:23:00,23.0,14.0,30.26,WSW,258,10.0,17.0,69,0.00,,,0.00,,2013-12-10 22:23:00,
2013-12-10 17:43:00,23.0,15.0,30.27,West,271,8.0,15.0,71,0.00,,,0.00,,2013-12-10 22:43:00,
2013-12-10 17:52:00,22.0,14.0,30.28,WSW,256,10.0,16.0,72,0.00,,,0.00,,2013-12-10 22:52:00,
2013-12-10 18:12:00,21.0,14.0,30.28,West,267,7.0,12.0,74,0.00,,,0.00,,2013-12-10 23:12:00,
2013-12-10 18:22:00,19.0,13.0,30.28,West,269,6.0,11.0,76,0.00,,,0.00,,2013-12-10 23:22:00,
2013-12-10 18:43:00,18.0,12.0,30.29,WNW,296,3.0,8.0,78,0.00,,,0.00,,2013-12-10 23:43:00,
2013-12-10 18:53:00,17.0,12.0,30.29,West,273,1.0,4.0,81,0.00,,,0.00,,2013-12-10 23:53:00,
2013-12-10 19:11:00,17.0,12.0,30.29,West,273,0.0,1.0,80,0.00,,,0.00,,2013-12-11 00:11:00,
2013-12-10 19:22:00,15.0,10.0,30.29,West,275,0.0,3.0,80,0.00,,,0.00,,2013-12-11 00:22:00,
2013-12-10 19:42:00,14.0,10.0,30.29,West,275,0.0,2.0,82,0.00,,,0.00,,2013-12-11 00:42:00,
2013-12-10 19:52:00,13.0,9.0,30.29,West,275,0.0,1.0,82,0.00,,,0.00,,2013-12-11 00:52:00,
2013-12-10 20:11:00,13.0,9.0,30.31,West,268,0.0,3.0,83,0.00,,,0.00,,2013-12-11 01:11:00,
2013-12-10 20:22:00,12.0,8.0,30.31,West,268,1.0,2.0,84,0.00,,,0.00,,2013-12-11 01:22:00,
2013-12-10 20:42:00,12.0,8.0,30.32,West,278,0.0,2.0,83,0.00,,,0.00,,2013-12-11 01:42:00,
2013-12-10 20:52:00,11.0,7.0,30.33,West,278,0.0,2.0,83,0.00,,,0.00,,2013-12-11 01:52:00,
2013-12-10 21:12:00,11.0,7.0,30.35,NW,304,1.0,3.0,83,0.00,,,0.00,,2013-12-11 02:12:00,
2013-12-10 21:22:00,11.0,7.0,30.35,WNW,296,3.0,5.0,84,0.00,,,0.00,,2013-12-11 02:22:00,
2013-12-10 21:42:00,12.0,8.0,30.35,WNW,300,2.0,5.0,85,0.00,,,0.00,,2013-12-11 02:42:00,
2013-12-10 21:52:00,11.0,7.0,30.36,West,278,0.0,3.0,83,0.00,,,0.00,,2013-12-11 02:52:00,
2013-12-10 22:11:00,11.0,7.0,30.37,West,278,0.0,1.0,83,0.00,,,0.00,,2013-12-11 03:11:00,
2013-12-10 22:22:00,11.0,7.0,30.37,West,278,0.0,1.0,83,0.00,,,0.00,,2013-12-11 03:22:00,
2013-12-10 22:43:00,11.0,8.0,30.36,West,271,0.0,1.0,86,0.00,,,0.00,,2013-12-11 03:43:00,
2013-12-10 22:54:00,11.0,7.0,30.37,West,271,0.0,0.0,84,0.00,,,0.00,,2013-12-11 03:54:00,
2013-12-10 23:13:00,11.0,7.0,30.37,West,271,0.0,0.0,84,0.00,,,0.00,,2013-12-11 04:13:00,
2013-12-10 23:23:00,11.0,7.0,30.38,West,271,0.0,1.0,84,0.00,,,0.00,,2013-12-11 04:23:00,
2013-12-10 23:43:00,11.0,7.0,30.38,West,271,0.0,1.0,84,0.00,,,0.00,,2013-12-11 04:43:00,
2013-12-10 23:52:00,12.0,8.0,30.38,West,271,0.0,2.0,83,0.00,,,0.00,,2013-12-11 04:52:00,